Latest Weather Observations for Pound Creek

IDV60801

Issued at 4:42 pm EDT Wednesday 19 December 2018 (issued every 10 minutes, with the page automatically refreshed every 10 minutes)

About weather observations | Map of weather stations | Latest weather observations for VIC | Other Formats
Station Details ID: 085099 Name: POUND CREEK Lat: -38.63 Lon: 145.81 Height: 3.0 m
Data from the previous 72 hours. | See also: Recent months at Pound Creek
Date/Time
EDT
Temp
°C
App
Temp
°C
Dew
Point
°C
Rel
Hum
%
Delta-T
°C
Wind Press
QNH
hPa
Press
MSL
hPa
Rain since
9am
mm
Dir  Spd
km/h
Gust
km/h
Spd
kts
Gust
kts
19/04:30pm 21.8 20.7 17.8 78 2.5 ESE 20 28 11 15 1009.8 1009.8 0.0
19/04:00pm 22.5 21.2 18.1 76 2.7 E 22 30 12 16 1009.9 1009.9 0.0
19/03:30pm 22.4 20.7 18.0 76 2.7 E 24 33 13 18 1010.1 1010.1 0.0
19/03:00pm 22.7 21.7 18.9 79 2.4 E 22 30 12 16 1010.0 1010.0 0.0
19/02:30pm 22.0 19.5 18.0 78 2.5 ESE 28 35 15 19 1010.4 1010.4 0.0
19/02:00pm 21.9 20.2 18.1 79 2.4 ESE 24 32 13 17 1010.6 1010.6 0.0
19/01:30pm 22.2 20.2 18.4 79 2.4 E 26 37 14 20 1010.8 1010.8 0.0
19/01:00pm 21.4 19.7 17.2 77 2.6 ESE 22 35 12 19 1011.4 1011.4 0.0
19/12:30pm 22.0 21.4 17.6 76 2.7 E 17 22 9 12 1012.0 1012.0 0.0
19/12:00pm 21.2 19.3 16.6 75 2.8 E 22 32 12 17 1011.9 1011.9 0.0
19/11:30am 21.6 19.7 16.8 74 2.9 E 22 32 12 17 1012.2 1012.2 0.0
19/11:00am 21.2 19.1 16.2 73 3.0 E 22 30 12 16 1013.0 1013.0 0.0
19/10:30am 20.7 18.2 16.1 75 2.8 E 24 32 13 17 1013.2 1013.2 0.0
19/10:00am 20.3 18.7 16.1 77 2.5 E 19 28 10 15 1013.4 1013.4 0.0
19/09:30am 19.6 16.9 15.7 78 2.3 E 24 35 13 19 1013.5 1013.5 0.0
19/09:00am 19.8 18.1 15.7 77 2.4 E 19 28 10 15 1013.9 1013.9 0.2
19/08:30am 19.2 15.1 14.9 76 2.5 E 30 41 16 22 1012.9 1012.9 0.2
19/08:00am 18.5 15.6 15.0 80 2.0 E 24 37 13 20 1013.1 1013.1 0.2
19/07:30am 18.1 16.1 15.4 84 1.6 E 20 30 11 16 1012.9 1012.9 0.2
19/07:00am 17.6 15.8 15.6 88 1.2 E 19 26 10 14 1013.1 1013.1 0.2
19/06:30am 16.9 15.4 15.2 90 1.0 E 17 24 9 13 1013.1 1013.1 0.2
19/06:00am 16.7 15.6 15.2 91 0.9 E 15 24 8 13 1013.2 1013.2 0.2
19/05:30am 16.5 15.0 15.2 92 0.8 ESE 17 24 9 13 1013.2 1013.2 0.2
19/05:00am 16.0 15.1 14.9 93 0.6 ESE 13 17 7 9 1013.2 1013.2 0.2
19/04:30am 15.8 14.8 14.7 93 0.6 E 13 19 7 10 1012.7 1012.7 0.2
19/04:00am 15.9 14.9 14.6 92 0.7 ESE 13 17 7 9 1012.8 1012.8 0.2
19/03:30am 15.9 15.2 14.4 91 0.9 ESE 11 15 6 8 1013.2 1013.2 0.2
19/03:00am 15.9 15.3 14.6 92 0.7 E 11 15 6 8 1013.3 1013.3 0.2
19/02:30am 15.9 15.4 14.8 93 0.6 E 11 15 6 8 1013.5 1013.5 0.2
19/02:00am 15.3 15.2 14.0 92 0.7 E 7 13 4 7 1013.7 1013.7 0.2
19/01:30am 15.4 15.5 13.9 91 0.8 ENE 6 7 3 4 1014.3 1014.3 0.2
19/01:00am 15.8 16.0 14.2 90 0.9 ENE 6 9 3 5 1014.8 1014.8 0.2
19/12:30am 16.1 16.1 14.3 89 1.0 ENE 7 9 4 5 1015.2 1015.2 0.2
19/12:00am 16.6 16.0 14.6 88 1.1 ENE 11 17 6 9 1015.5 1015.5 0.2
 
Date/Time
EDT
Temp
°C
App
Temp
°C
Dew
Point
°C
Rel
Hum
%
Delta-T
°C
Wind Press
QNH
hPa
Press
MSL
hPa
Rain since
9am
mm
Dir  Spd
km/h
Gust
km/h
Spd
kts
Gust
kts
18/11:30pm 16.7 16.1 14.7 88 1.1 ENE 11 17 6 9 1015.6 1015.6 0.2
18/11:00pm 16.9 15.6 14.7 87 1.3 E 15 20 8 11 1015.8 1015.8 0.2
18/10:30pm 16.8 15.4 14.6 87 1.3 E 15 24 8 13 1015.5 1015.5 0.2
18/10:00pm 16.4 15.9 14.8 90 0.9 E 11 17 6 9 1015.6 1015.6 0.2
18/09:30pm 16.5 16.4 14.9 90 0.9 ENE 9 15 5 8 1015.6 1015.6 0.2
18/09:00pm 16.4 16.1 14.4 88 1.1 E 9 13 5 7 1015.7 1015.7 0.2
18/08:30pm 17.0 16.4 14.5 85 1.4 E 11 15 6 8 1015.9 1015.9 0.2
18/08:00pm 17.8 16.5 14.9 83 1.7 ESE 15 20 8 11 1016.0 1016.0 0.2
18/07:30pm 18.4 18.0 15.3 82 1.8 SE 11 15 6 8 1015.9 1015.9 0.2
18/07:00pm 18.1 17.0 15.2 83 1.7 S 15 19 8 10 1015.7 1015.7 0.2
18/06:30pm 18.2 16.9 14.9 81 1.9 S 15 20 8 11 1015.5 1015.5 0.2
18/06:00pm 19.4 18.8 15.7 79 2.2 SSW 13 17 7 9 1015.3 1015.3 0.2
18/05:30pm 19.2 18.5 15.3 78 2.3 SSW 13 17 7 9 1015.2 1015.2 0.2
18/05:00pm 19.2 18.5 15.3 78 2.3 SSW 13 17 7 9 1015.4 1015.4 0.2
18/04:30pm 19.1 18.2 14.8 76 2.5 SW 13 17 7 9 1015.6 1015.6 0.2
18/04:00pm 20.3 19.5 15.1 72 3.1 SSW 13 20 7 11 1015.8 1015.8 0.2
18/03:30pm 20.0 19.1 14.8 72 3.0 SSW 13 19 7 10 1015.9 1015.9 0.2
18/03:00pm 19.4 17.6 14.4 73 2.9 SSW 17 22 9 12 1016.0 1016.0 0.2
18/02:30pm 19.2 17.3 14.2 73 2.9 SW 17 22 9 12 1016.1 1016.1 0.2
18/02:00pm 19.5 17.4 14.7 74 2.8 SSW 19 24 10 13 1015.9 1015.9 0.0
18/01:30pm 20.7 19.9 16.1 75 2.8 SW 15 22 8 12 1015.9 1015.9 0.0
18/01:00pm 20.7 21.0 16.1 75 2.8 SW 9 17 5 9 1016.3 1016.3 0.0
18/12:30pm 20.3 20.9 15.7 75 2.7 SSW 7 13 4 7 1016.6 1016.6 0.0
18/12:00pm 19.0 18.6 14.1 73 2.8 SSW 9 17 5 9 1016.7 1016.7 0.0
18/11:30am 18.8 17.9 14.9 78 2.3 SW 13 19 7 10 1016.7 1016.7 0.0
18/11:00am 18.1 17.5 14.6 80 2.0 SW 11 15 6 8 1016.9 1016.9 0.0
18/10:30am 17.5 16.9 14.6 83 1.7 SW 11 17 6 9 1016.9 1016.9 0.0
18/10:00am 17.3 17.3 14.2 82 1.8 W 7 13 4 7 1016.7 1016.7 0.0
18/09:30am 15.9 15.6 14.3 90 0.9 WSW 9 13 5 7 1016.7 1016.7 0.0
18/09:00am 15.8 16.2 14.7 93 0.6 W 6 7 3 4 1016.7 1016.7 0.2
18/08:30am 15.4 16.1 14.4 94 0.6 WNW 4 6 2 3 1016.3 1016.3 0.2
18/08:00am 15.1 15.6 14.1 94 0.6 NNW 4 6 2 3 1016.1 1016.1 0.2
18/07:30am 15.1 15.2 14.0 93 0.6 W 6 9 3 5 1016.0 1016.0 0.2
18/07:00am 15.2 15.6 13.6 90 0.9 WNW 4 7 2 4 1015.4 1015.4 0.0
18/06:30am 15.4 15.3 13.4 88 1.1 SW 6 7 3 4 1015.1 1015.1 0.0
18/06:00am 15.4 14.7 13.2 87 1.2 WSW 9 17 5 9 1015.1 1015.1 0.0
18/05:30am 15.1 14.0 13.1 88 1.1 SW 11 15 6 8 1014.8 1014.8 0.0
18/05:00am 15.2 14.3 13.6 90 0.9 SW 11 13 6 7 1014.2 1014.2 0.0
18/04:30am 15.1 16.2 13.5 90 0.9 CALM 0 0 0 0 1014.2 1014.2 0.0
18/04:00am 15.0 15.3 13.4 90 0.9 NW 4 7 2 4 1014.1 1014.1 0.0
18/03:30am 15.1 15.4 13.3 89 1.0 NW 4 6 2 3 1014.2 1014.2 0.0
18/03:00am 15.3 15.2 13.2 87 1.2 NW 6 7 3 4 1014.3 1014.3 0.0
18/02:30am 15.2 14.9 13.2 88 1.1 W 7 11 4 6 1014.5 1014.5 0.0
18/02:00am 15.3 14.2 13.2 87 1.2 W 11 15 6 8 1015.0 1015.0 0.0
18/01:30am 15.4 14.2 12.9 85 1.4 W 11 15 6 8 1014.9 1014.9 0.0
18/01:00am 15.6 14.9 13.1 85 1.4 W 9 15 5 8 1014.9 1014.9 0.0
18/12:30am 15.7 13.9 13.2 85 1.4 WSW 15 22 8 12 1015.1 1015.1 0.0
18/12:00am 15.8 14.0 13.3 85 1.4 SW 15 20 8 11 1014.8 1014.8 0.0
 
Date/Time
EDT
Temp
°C
App
Temp
°C
Dew
Point
°C
Rel
Hum
%
Delta-T
°C
Wind Press
QNH
hPa
Press
MSL
hPa
Rain since
9am
mm
Dir  Spd
km/h
Gust
km/h
Spd
kts
Gust
kts
17/11:30pm 15.9 14.4 13.0 83 1.6 WSW 13 20 7 11 1014.8 1014.8 0.0
17/11:00pm 15.9 13.6 13.0 83 1.6 WSW 17 22 9 12 1015.1 1015.1 0.0
17/10:30pm 16.1 14.5 13.8 86 1.3 WSW 15 19 8 10 1014.9 1014.9 0.0
17/10:00pm 16.3 15.0 13.8 85 1.4 WSW 13 19 7 10 1014.9 1014.9 0.0
17/09:30pm 16.3 14.7 13.8 85 1.4 WSW 15 20 8 11 1014.8 1014.8 0.0
17/09:00pm 16.1 14.6 14.1 88 1.1 WSW 15 24 8 13 1014.9 1014.9 0.0
17/08:30pm 16.0 15.7 14.4 90 0.9 W 9 17 5 9 1014.6 1014.6 0.0
17/08:00pm 16.2 14.3 14.2 88 1.1 SW 17 20 9 11 1014.3 1014.3 0.0
17/07:30pm 16.4 14.1 14.2 87 1.3 WSW 19 24 10 13 1014.2 1014.2 0.0
17/07:00pm 17.1 15.2 14.2 83 1.7 WSW 17 24 9 13 1013.9 1013.9 0.0
17/06:30pm 17.5 15.6 14.2 81 1.9 WSW 17 28 9 15 1013.5 1013.5 0.0
17/06:00pm 17.7 15.4 14.2 80 2.0 SW 19 28 10 15 1013.1 1013.1 0.0
17/05:30pm 18.5 15.7 14.4 77 2.4 WSW 22 28 12 15 1013.1 1013.1 0.0
17/05:00pm 18.3 16.3 15.4 83 1.7 SW 20 30 11 16 1013.0 1013.0 0.0
17/04:30pm 18.1 15.9 15.0 82 1.8 WSW 20 28 11 15 1012.9 1012.9 0.0
17/04:00pm 18.3 15.9 15.4 83 1.7 WSW 22 32 12 17 1012.6 1012.6 0.0
17/03:30pm 18.3 15.6 15.7 85 1.5 SW 24 30 13 16 1012.5 1012.5 0.0
17/03:00pm 18.5 16.5 16.5 88 1.2 WSW 22 30 12 16 1012.3 1012.3 0.0
17/02:30pm 17.8 15.1 15.6 87 1.3 WSW 24 32 13 17 1012.0 1012.0 0.0
17/02:00pm 18.0 15.3 15.6 86 1.4 WSW 24 33 13 18 1011.7 1011.7 0.0
17/01:30pm 18.4 15.6 15.3 82 1.8 WSW 24 32 13 17 1011.6 1011.6 0.0
17/01:00pm 19.1 16.4 15.6 80 2.1 WSW 24 35 13 19 1011.6 1011.6 0.0
17/12:30pm 20.1 16.7 15.7 76 2.6 WSW 28 39 15 21 1011.4 1011.4 0.0
17/12:00pm 19.0 16.0 15.9 82 1.8 WSW 26 35 14 19 1011.4 1011.4 0.0
17/11:30am 19.9 17.2 15.7 77 2.5 WSW 24 33 13 18 1011.1 1011.1 0.0
17/11:00am 19.6 18.0 16.4 82 1.9 WSW 20 30 11 16 1011.1 1011.1 0.0
17/10:30am 18.5 16.5 15.4 82 1.8 WSW 20 28 11 15 1011.0 1011.0 0.0
17/10:00am 18.6 16.7 15.7 83 1.7 WSW 20 28 11 15 1010.8 1010.8 0.0
17/09:30am 18.3 16.5 15.4 83 1.7 W 19 28 10 15 1010.8 1010.8 0.0
17/09:00am 17.9 16.6 15.7 87 1.3 W 17 30 9 16 1010.7 1010.7 0.8
17/08:30am 17.9 17.4 16.8 93 0.7 W 15 20 8 11 1010.4 1010.4 0.8
17/08:00am 17.0 17.8 16.4 96 0.4 W 7 13 4 7 1010.2 1010.2 0.8
17/07:30am 16.4 16.7 15.9 97 0.3 W 9 13 5 7 1009.6 1009.6 0.8
17/07:00am 15.8 16.8 15.3 97 0.3 NW 4 7 2 4 1009.4 1009.4 0.8
17/06:30am 15.1 15.4 14.6 97 0.3 NW 6 7 3 4 1009.1 1009.1 0.8
17/06:00am 14.5 14.6 14.0 97 0.3 NNW 6 9 3 5 1008.8 1008.8 0.8
17/05:30am 14.7 14.7 14.2 97 0.3 N 7 9 4 5 1008.5 1008.5 0.8
17/05:00am 13.9 13.3 13.4 97 0.3 N 9 11 5 6 1008.3 1008.3 0.8
17/04:30am 13.4 12.6 12.9 97 0.3 N 9 13 5 7 1008.0 1008.0 0.8
17/04:00am 12.9 12.3 12.4 97 0.3 NNW 7 9 4 5 1007.7 1007.7 0.8
17/03:30am 13.3 12.8 12.7 96 0.3 NNW 7 7 4 4 1007.5 1007.5 0.8
17/03:00am 13.5 13.7 13.0 97 0.3 NW 4 6 2 3 1007.6 1007.6 0.8
17/02:30am 12.4 12.6 11.8 96 0.3 S 2 6 1 3 1007.8 1007.8 0.8
17/02:00am 14.2 14.6 13.6 96 0.3 NNW 4 6 2 3 1007.6 1007.6 0.8
17/01:30am 14.5 14.6 14.0 97 0.3 NW 6 9 3 5 1007.6 1007.6 0.8
17/01:00am 14.8 13.7 14.2 96 0.3 N 13 17 7 9 1007.3 1007.3 0.8
17/12:30am 15.2 15.0 14.6 96 0.3 N 9 11 5 6 1007.6 1007.6 0.8
17/12:00am 14.6 14.5 14.0 96 0.3 N 7 11 4 6 1007.8 1007.8 0.8
 
Date/Time
EDT
Temp
°C
App
Temp
°C
Dew
Point
°C
Rel
Hum
%
Delta-T
°C
Wind Press
QNH
hPa
Press
MSL
hPa
Rain since
9am
mm
Dir  Spd
km/h
Gust
km/h
Spd
kts
Gust
kts
16/11:30pm 14.3 14.1 13.5 95 0.4 N 7 7 4 4 1007.8 1007.8 0.8
16/11:00pm 15.3 16.0 14.5 95 0.5 N 4 9 2 5 1007.7 1007.7 0.8
16/10:30pm 15.5 16.6 14.5 94 0.6 NNW 2 7 1 4 1007.6 1007.6 0.8
16/10:00pm 15.9 17.5 14.8 93 0.6 CALM 0 0 0 0 1007.5 1007.5 0.8
16/09:30pm 16.5 18.1 15.0 91 0.9 CALM 0 2 0 1 1007.1 1007.1 0.8
16/09:00pm 16.9 17.2 15.1 89 1.0 SW 7 9 4 5 1006.8 1006.8 0.8
16/08:30pm 18.3 17.8 15.9 86 1.4 WSW 13 15 7 8 1006.5 1006.5 0.8
16/08:00pm 19.5 18.7 15.2 76 2.5 W 13 17 7 9 1006.2 1006.2 0.8
16/07:30pm 20.6 19.8 15.2 71 3.2 WSW 13 20 7 11 1005.8 1005.8 0.8
16/07:00pm 19.7 19.8 14.5 72 3.0 NW 7 13 4 7 1005.6 1005.6 0.8
16/06:30pm 21.1 19.6 14.3 65 4.0 NW 15 28 8 15 1005.2 1005.2 0.8
16/06:00pm 21.0 19.8 15.1 69 3.5 NW 15 26 8 14 1004.8 1004.8 0.8
16/05:30pm 20.4 19.2 14.1 67 3.6 NW 13 24 7 13 1005.0 1005.0 0.8
16/05:00pm 21.4 20.3 15.3 68 3.6 NW 15 24 8 13 1004.9 1004.9 0.8

Other Formats:

Comma delimited format used in spreadsheet applications
http://www.bom.gov.au/fwo/IDV60801/IDV60801.94886.axf

JavaScript Object Notation format (JSON) in row-major order
http://www.bom.gov.au/fwo/IDV60801/IDV60801.94886.json